W55 EFKU-EFOU

Flight info

Callsign W55
Flight time 0h 36m
Altitude 28000
Route UGLUM T95 UGMOR
Aircraft LJ35/M-SGHRWXY/SB1

Departure

Time 2026-04-26 09:03
Airport Kuopio Airport (EFKU)

Arrival

Time 2026-04-26 09:39
Airport Oulu Airport (EFOU)
Time Latitude Longitude Altitude Speed Heading
2026-04-26 08:50 63.00313 27.79142 312 ft 0 kts 66°
2026-04-26 08:59 63.00345 27.79157 312 ft 12 kts 342°
2026-04-26 09:00 63.00444 27.79069 314 ft 19 kts 340°
2026-04-26 09:00 63.00470 27.79056 314 ft 3 kts 25°
2026-04-26 09:00 63.00503 27.79121 314 ft 9 kts 33°
2026-04-26 09:00 63.00569 27.79221 314 ft 13 kts 36°
2026-04-26 09:01 63.00634 27.79371 316 ft 15 kts 60°
2026-04-26 09:01 63.00678 27.79560 315 ft 1 kts 67°
2026-04-26 09:01 63.00684 27.79594 315 ft 5 kts 65°
2026-04-26 09:01 63.00705 27.79698 315 ft 10 kts 64°
2026-04-26 09:02 63.00740 27.79744 317 ft 10 kts 356°
2026-04-26 09:02 63.00764 27.79729 318 ft 0 kts 335°
2026-04-26 09:02 63.00768 27.79725 318 ft 9 kts 336°
2026-04-26 09:03 63.01246 27.79282 335 ft 143 kts 339°
2026-04-26 09:03 63.02790 27.77810 1824 ft 188 kts 340°
2026-04-26 09:03 63.03580 27.77093 2480 ft 185 kts 341°
2026-04-26 09:03 63.04782 27.76014 3803 ft 188 kts 341°
2026-04-26 09:04 63.05993 27.74891 5217 ft 190 kts 342°
2026-04-26 09:04 63.07224 27.73745 6555 ft 195 kts 342°
2026-04-26 09:04 63.08480 27.72577 7775 ft 202 kts 342°
2026-04-26 09:04 63.09832 27.71697 9003 ft 204 kts 358°
2026-04-26 09:05 63.11267 27.71419 10153 ft 211 kts 357°
2026-04-26 09:05 63.12746 27.71042 11260 ft 217 kts 356°
2026-04-26 09:05 63.14269 27.70646 12298 ft 227 kts 354°
2026-04-26 09:05 63.15891 27.70134 13125 ft 249 kts 352°
2026-04-26 09:06 63.17711 27.69537 13971 ft 277 kts 352°
2026-04-26 09:06 63.19697 27.68910 14998 ft 289 kts 353°
2026-04-26 09:06 63.21734 27.68600 16273 ft 300 kts 356°
2026-04-26 09:06 63.23860 27.68403 17366 ft 311 kts 354°
2026-04-26 09:07 63.26038 27.67953 18391 ft 318 kts 350°
2026-04-26 09:07 63.28260 27.67298 19306 ft 326 kts 349°
2026-04-26 09:07 63.30541 27.66697 20224 ft 333 kts 352°
2026-04-26 09:07 63.32867 27.66182 21109 ft 339 kts 352°
2026-04-26 09:08 63.35234 27.65638 21947 ft 345 kts 351°
2026-04-26 09:08 63.37637 27.65033 22738 ft 351 kts 351°
2026-04-26 09:08 63.40078 27.64425 23480 ft 355 kts 352°
2026-04-26 09:08 63.42557 27.64371 24105 ft 360 kts
2026-04-26 09:09 63.45052 27.65153 24748 ft 363 kts
2026-04-26 09:09 63.47563 27.65925 25363 ft 365 kts
2026-04-26 09:09 63.50082 27.66663 25979 ft 366 kts
2026-04-26 09:09 63.52611 27.67417 26575 ft 367 kts
2026-04-26 09:10 63.55148 27.68198 27135 ft 369 kts
2026-04-26 09:10 63.57694 27.68983 27637 ft 371 kts
2026-04-26 09:10 63.60301 27.69771 27666 ft 385 kts
2026-04-26 09:10 63.62990 27.70582 27674 ft 395 kts
2026-04-26 09:11 63.65745 27.71428 27678 ft 404 kts
2026-04-26 09:11 63.68553 27.72295 27679 ft 411 kts
2026-04-26 09:11 63.71404 27.73170 27679 ft 416 kts
2026-04-26 09:11 63.74323 27.74063 27682 ft 427 kts
2026-04-26 09:12 63.77264 27.74970 27677 ft 426 kts
2026-04-26 09:12 63.80197 27.75881 27676 ft 425 kts
2026-04-26 09:12 63.83121 27.76788 27682 ft 424 kts
2026-04-26 09:12 63.86040 27.77691 27681 ft 423 kts
2026-04-26 09:13 63.88962 27.78409 27682 ft 421 kts
2026-04-26 09:13 63.91870 27.77990 27672 ft 418 kts 350°
2026-04-26 09:13 63.94675 27.76426 27663 ft 412 kts 340°
2026-04-26 09:13 63.97278 27.73792 27670 ft 408 kts 330°
2026-04-26 09:14 63.99502 27.70396 27678 ft 403 kts 321°
2026-04-26 09:14 64.01537 27.66077 27681 ft 397 kts 314°
2026-04-26 09:14 64.03476 27.61636 27678 ft 393 kts 314°
2026-04-26 09:14 64.05385 27.57308 27680 ft 390 kts 315°
2026-04-26 09:15 64.07305 27.52946 27685 ft 388 kts 314°
2026-04-26 09:15 64.09204 27.48597 27749 ft 381 kts 314°
2026-04-26 09:15 64.11052 27.44354 26753 ft 380 kts 314°
2026-04-26 09:15 64.12914 27.40081 25963 ft 376 kts 314°
2026-04-26 09:16 64.14751 27.35862 25320 ft 372 kts 314°
2026-04-26 09:16 64.16566 27.31679 24789 ft 368 kts 313°
2026-04-26 09:16 64.18359 27.27538 24233 ft 365 kts 313°
2026-04-26 09:16 64.20139 27.23418 23704 ft 362 kts 313°
2026-04-26 09:17 64.21903 27.19328 23199 ft 359 kts 313°
2026-04-26 09:17 64.23648 27.15269 22613 ft 356 kts 313°
2026-04-26 09:17 64.25379 27.11238 22060 ft 352 kts 313°
2026-04-26 09:17 64.27091 27.07247 21534 ft 349 kts 314°
2026-04-26 09:18 64.28785 27.03287 21022 ft 346 kts 313°
2026-04-26 09:18 64.30464 26.99357 20518 ft 343 kts 314°
2026-04-26 09:18 64.32129 26.95451 20057 ft 340 kts 314°
2026-04-26 09:18 64.33787 26.91557 19826 ft 339 kts 314°
2026-04-26 09:19 64.35433 26.87687 19656 ft 337 kts 314°
2026-04-26 09:19 64.37072 26.83820 19478 ft 336 kts 314°
2026-04-26 09:19 64.38707 26.79955 19301 ft 334 kts 314°
2026-04-26 09:19 64.40327 26.76122 18938 ft 333 kts 314°
2026-04-26 09:20 64.41943 26.72294 18593 ft 332 kts 314°
2026-04-26 09:20 64.43546 26.68487 18276 ft 329 kts 314°
2026-04-26 09:20 64.45141 26.64692 17937 ft 328 kts 314°
2026-04-26 09:20 64.46728 26.60909 17590 ft 327 kts 315°
2026-04-26 09:21 64.48306 26.57145 17376 ft 325 kts 315°
2026-04-26 09:21 64.49859 26.53435 17160 ft 324 kts 315°
2026-04-26 09:21 64.51421 26.49688 16947 ft 322 kts 315°
2026-04-26 09:21 64.53000 26.45896 18059 ft 321 kts 314°
2026-04-26 09:22 64.54577 26.42097 19216 ft 348 kts 314°
2026-04-26 09:22 64.56380 26.37761 19230 ft 395 kts 314°
2026-04-26 09:22 64.58384 26.32934 19268 ft 432 kts 314°
2026-04-26 09:22 64.60485 26.27848 19227 ft 418 kts 314°
2026-04-26 09:23 64.62425 26.23137 18720 ft 388 kts 314°
2026-04-26 09:23 64.64233 26.18743 18149 ft 367 kts 314°
2026-04-26 09:23 64.66007 26.14426 16850 ft 367 kts 315°
2026-04-26 09:23 64.67756 26.10178 15850 ft 359 kts 316°
2026-04-26 09:24 64.69473 26.06062 14861 ft 353 kts 317°
2026-04-26 09:24 64.71182 26.01960 13895 ft 348 kts 317°
2026-04-26 09:24 64.72854 25.97915 12900 ft 343 kts 317°
2026-04-26 09:24 64.74492 25.93930 11952 ft 337 kts 317°
2026-04-26 09:25 64.76108 25.90008 11042 ft 332 kts 317°
2026-04-26 09:25 64.77702 25.86141 10169 ft 327 kts 317°
2026-04-26 09:25 64.79245 25.82372 9084 ft 294 kts 317°
2026-04-26 09:25 64.80554 25.79142 6944 ft 257 kts 317°
2026-04-26 09:26 64.81752 25.76231 4995 ft 255 kts 318°
2026-04-26 09:26 64.83206 25.72752 4272 ft 323 kts 317°
2026-04-26 09:26 64.84732 25.69364 3829 ft 289 kts 326°
2026-04-26 09:26 64.86543 25.67564 2838 ft 281 kts 353°
2026-04-26 09:27 64.88336 25.67674 2765 ft 243 kts 10°
2026-04-26 09:27 64.89812 25.68925 2764 ft 211 kts 27°
2026-04-26 09:27 64.90928 25.70862 2760 ft 190 kts 41°
2026-04-26 09:27 64.91742 25.73242 2466 ft 190 kts 54°
2026-04-26 09:28 64.92269 25.76109 2263 ft 188 kts 68°
2026-04-26 09:28 64.92464 25.79034 2263 ft 175 kts 81°
2026-04-26 09:28 64.92362 25.81809 2258 ft 165 kts 94°
2026-04-26 09:28 64.91994 25.84485 2260 ft 181 kts 108°
2026-04-26 09:29 64.91284 25.87125 2266 ft 201 kts 124°
2026-04-26 09:29 64.90266 25.89572 2274 ft 215 kts 130°
2026-04-26 09:29 64.89211 25.92120 2394 ft 219 kts 129°
2026-04-26 09:29 64.88137 25.94717 2476 ft 225 kts 130°
2026-04-26 09:30 64.87024 25.97390 2491 ft 233 kts 130°
2026-04-26 09:30 64.85873 26.00152 2486 ft 237 kts 130°
2026-04-26 09:30 64.84708 26.02909 2468 ft 240 kts 133°
2026-04-26 09:30 64.83277 26.04990 2474 ft 246 kts 155°
2026-04-26 09:31 64.81602 26.05836 2474 ft 249 kts 176°
2026-04-26 09:31 64.79893 26.05309 2469 ft 249 kts 198°
2026-04-26 09:31 64.78366 26.03475 2463 ft 245 kts 219°
2026-04-26 09:31 64.77210 26.00615 2464 ft 239 kts 240°
2026-04-26 09:32 64.76540 25.97228 2473 ft 218 kts 259°
2026-04-26 09:32 64.76350 25.93886 2465 ft 198 kts 277°
2026-04-26 09:32 64.76545 25.90853 2464 ft 180 kts 293°
2026-04-26 09:32 64.77069 25.88345 2456 ft 166 kts 311°
2026-04-26 09:33 64.77850 25.86544 2473 ft 149 kts 330°
2026-04-26 09:33 64.78732 25.85449 2476 ft 142 kts 335°
2026-04-26 09:33 64.79480 25.83995 2457 ft 145 kts 315°
2026-04-26 09:33 64.80017 25.81881 2265 ft 153 kts 307°
2026-04-26 09:34 64.80553 25.79743 2208 ft 152 kts 308°
2026-04-26 09:34 64.81108 25.77629 2189 ft 151 kts 309°
2026-04-26 09:34 64.81690 25.75533 2026 ft 158 kts 311°
2026-04-26 09:34 64.82350 25.73441 1997 ft 163 kts 314°
2026-04-26 09:35 64.83013 25.71420 2117 ft 158 kts 314°
2026-04-26 09:35 64.83758 25.69309 1928 ft 179 kts 315°
2026-04-26 09:35 64.84562 25.66987 1927 ft 186 kts 314°
2026-04-26 09:35 64.85347 25.64545 1876 ft 191 kts 311°
2026-04-26 09:36 64.86132 25.61980 1814 ft 194 kts 310°
2026-04-26 09:36 64.86880 25.59390 1780 ft 191 kts 308°
2026-04-26 09:36 64.87551 25.56730 1689 ft 189 kts 305°
2026-04-26 09:36 64.88197 25.54096 1584 ft 179 kts 304°
2026-04-26 09:37 64.88809 25.51631 1431 ft 172 kts 307°
2026-04-26 09:37 64.89458 25.49140 1262 ft 183 kts 307°
2026-04-26 09:37 64.90148 25.46578 1162 ft 188 kts 308°
2026-04-26 09:37 64.90857 25.43906 879 ft 195 kts 304°
2026-04-26 09:38 64.91556 25.41183 536 ft 194 kts 304°
2026-04-26 09:38 64.92236 25.38541 355 ft 184 kts 304°
2026-04-26 09:38 64.92871 25.36041 254 ft 171 kts 303°
2026-04-26 09:38 64.93448 25.33730 256 ft 155 kts 304°
2026-04-26 09:39 64.93678 25.31538 421 ft 144 kts 243°
2026-04-26 09:39 64.92771 25.31737 106 ft 176 kts 129°
2026-04-26 09:39 64.92521 25.33063 46 ft 110 kts 106°
2026-04-26 09:39 64.92482 25.33361 47 ft 0 kts 121°
2026-04-26 09:40 64.92346 25.33859 46 ft 107 kts 122°
2026-04-26 09:40 64.91693 25.36202 274 ft 196 kts 121°
2026-04-26 09:40 64.90975 25.38874 566 ft 192 kts 117°
2026-04-26 09:40 64.90280 25.41545 858 ft 187 kts 117°
2026-04-26 09:41 64.89667 25.44206 1194 ft 175 kts 89°
2026-04-26 09:41 64.90355 25.45367 1093 ft 170 kts 316°
2026-04-26 09:41 64.90943 25.43249 671 ft 138 kts 307°
2026-04-26 09:41 64.91444 25.41527 426 ft 120 kts 309°
2026-04-26 09:42 64.91885 25.39880 239 ft 120 kts 306°
2026-04-26 09:42 64.92331 25.38146 126 ft 127 kts 305°
2026-04-26 09:42 64.92746 25.36529 40 ft 101 kts 302°
2026-04-26 09:42 64.93053 25.35339 46 ft 68 kts 301°
2026-04-26 09:43 64.93246 25.34585 47 ft 45 kts 301°
2026-04-26 09:43 64.93365 25.34164 49 ft 15 kts 317°
2026-04-26 09:43 64.93397 25.33975 50 ft 13 kts 222°
2026-04-26 09:43 64.93309 25.33825 49 ft 18 kts 212°
2026-04-26 09:44 64.93191 25.33748 49 ft 14 kts 192°
2026-04-26 09:44 64.93123 25.33672 49 ft 9 kts 284°
2026-04-26 09:44 64.93126 25.33638 49 ft 0 kts 283°